sensor_id;sensor_type;location;lat;lon;timestamp;pressure;altitude;pressure_sealevel;temperature;humidity
65384;BME280;51986;52.788;41.368;2023-02-13T00:00:31;99108.03;;;-4.12;62.74
65384;BME280;51986;52.788;41.368;2023-02-13T00:02:58;99108.44;;;-4.27;62.55
65384;BME280;51986;52.788;41.368;2023-02-13T00:05:25;99120.16;;;-4.12;62.74
65384;BME280;51986;52.788;41.368;2023-02-13T00:07:52;99116.28;;;-4.23;62.91
65384;BME280;51986;52.788;41.368;2023-02-13T00:10:19;99099.06;;;-4.54;63.34
65384;BME280;51986;52.788;41.368;2023-02-13T00:12:46;99120.91;;;-4.43;63.74
65384;BME280;51986;52.788;41.368;2023-02-13T00:15:13;99125.66;;;-4.36;63.84
65384;BME280;51986;52.788;41.368;2023-02-13T00:17:40;99111.38;;;-4.73;63.82
65384;BME280;51986;52.788;41.368;2023-02-13T00:20:09;99146.75;;;-4.56;64.67
65384;BME280;51986;52.788;41.368;2023-02-13T00:22:37;99133.75;;;-4.51;63.81
65384;BME280;51986;52.788;41.368;2023-02-13T00:25:05;99125.50;;;-4.62;63.60
65384;BME280;51986;52.788;41.368;2023-02-13T00:27:32;99140.03;;;-4.66;63.68
65384;BME280;51986;52.788;41.368;2023-02-13T00:30:01;99160.38;;;-4.56;64.00
65384;BME280;51986;52.788;41.368;2023-02-13T00:32:28;99140.53;;;-4.78;64.03
65384;BME280;51986;52.788;41.368;2023-02-13T00:34:55;99139.56;;;-4.68;63.95
65384;BME280;51986;52.788;41.368;2023-02-13T00:37:22;99140.59;;;-4.69;63.32
65384;BME280;51986;52.788;41.368;2023-02-13T00:39:50;99141.94;;;-4.72;63.21
65384;BME280;51986;52.788;41.368;2023-02-13T00:42:17;99134.63;;;-5.01;63.58
65384;BME280;51986;52.788;41.368;2023-02-13T00:44:45;99143.50;;;-5.07;63.85
65384;BME280;51986;52.788;41.368;2023-02-13T00:47:11;99138.97;;;-4.88;63.57
65384;BME280;51986;52.788;41.368;2023-02-13T00:49:39;99144.06;;;-4.74;62.92
65384;BME280;51986;52.788;41.368;2023-02-13T00:52:06;99151.34;;;-4.67;62.99
65384;BME280;51986;52.788;41.368;2023-02-13T00:54:33;99152.72;;;-4.70;63.20
65384;BME280;51986;52.788;41.368;2023-02-13T00:57:00;99164.75;;;-4.79;63.85
65384;BME280;51986;52.788;41.368;2023-02-13T00:59:27;99173.88;;;-4.73;63.56
65384;BME280;51986;52.788;41.368;2023-02-13T01:01:54;99168.41;;;-4.80;64.07
65384;BME280;51986;52.788;41.368;2023-02-13T01:04:21;99167.75;;;-4.63;62.70
65384;BME280;51986;52.788;41.368;2023-02-13T01:06:48;99148.81;;;-4.90;63.39
65384;BME280;51986;52.788;41.368;2023-02-13T01:09:15;99164.06;;;-4.71;63.41
65384;BME280;51986;52.788;41.368;2023-02-13T01:11:42;99170.59;;;-4.87;63.97
65384;BME280;51986;52.788;41.368;2023-02-13T01:14:09;99210.22;;;-4.74;63.77
65384;BME280;51986;52.788;41.368;2023-02-13T01:16:36;99187.13;;;-4.66;63.45
65384;BME280;51986;52.788;41.368;2023-02-13T01:19:03;99191.50;;;-4.66;64.06
65384;BME280;51986;52.788;41.368;2023-02-13T01:21:30;99167.78;;;-4.77;63.46
65384;BME280;51986;52.788;41.368;2023-02-13T01:23:57;99211.03;;;-4.65;62.99
65384;BME280;51986;52.788;41.368;2023-02-13T01:26:28;99189.84;;;-4.62;62.97
65384;BME280;51986;52.788;41.368;2023-02-13T01:28:55;99193.84;;;-4.56;62.87
65384;BME280;51986;52.788;41.368;2023-02-13T01:31:22;99163.19;;;-4.66;63.47
65384;BME280;51986;52.788;41.368;2023-02-13T01:33:50;99207.81;;;-4.71;63.64
65384;BME280;51986;52.788;41.368;2023-02-13T01:36:20;99208.66;;;-4.98;64.10
65384;BME280;51986;52.788;41.368;2023-02-13T01:38:47;99161.88;;;-5.00;63.43
65384;BME280;51986;52.788;41.368;2023-02-13T01:41:14;99197.50;;;-4.93;64.46
65384;BME280;51986;52.788;41.368;2023-02-13T01:43:54;99193.88;;;-4.92;63.63
65384;BME280;51986;52.788;41.368;2023-02-13T01:46:36;99197.56;;;-4.84;63.14
65384;BME280;51986;52.788;41.368;2023-02-13T01:51:38;99207.50;;;-4.92;63.40
65384;BME280;51986;52.788;41.368;2023-02-13T01:54:21;99210.31;;;-4.79;62.45
65384;BME280;51986;52.788;41.368;2023-02-13T01:57:08;99204.91;;;-4.92;61.91
65384;BME280;51986;52.788;41.368;2023-02-13T01:59:52;99197.69;;;-4.90;62.29
65384;BME280;51986;52.788;41.368;2023-02-13T02:02:21;99197.19;;;-4.92;61.44
65384;BME280;51986;52.788;41.368;2023-02-13T02:04:49;99185.09;;;-4.91;61.66
65384;BME280;51986;52.788;41.368;2023-02-13T02:07:24;99235.53;;;-4.68;61.87
65384;BME280;51986;52.788;41.368;2023-02-13T02:09:57;99217.06;;;-4.70;61.13
65384;BME280;51986;52.788;41.368;2023-02-13T02:12:40;99226.25;;;-4.55;61.52
65384;BME280;51986;52.788;41.368;2023-02-13T02:15:11;99192.53;;;-4.67;60.63
65384;BME280;51986;52.788;41.368;2023-02-13T02:17:38;99230.19;;;-4.71;60.90
65384;BME280;51986;52.788;41.368;2023-02-13T02:26:41;99210.03;;;-4.55;59.86
65384;BME280;51986;52.788;41.368;2023-02-13T02:38:00;99244.38;;;-4.60;59.98
65384;BME280;51986;52.788;41.368;2023-02-13T02:46:23;99225.47;;;-4.78;60.19
65384;BME280;51986;52.788;41.368;2023-02-13T02:49:00;99276.75;;;-4.45;59.54
65384;BME280;51986;52.788;41.368;2023-02-13T02:57:13;99228.00;;;-4.42;59.81
65384;BME280;51986;52.788;41.368;2023-02-13T02:59:43;99230.47;;;-4.59;59.62
65384;BME280;51986;52.788;41.368;2023-02-13T03:02:12;99254.50;;;-4.64;60.38
65384;BME280;51986;52.788;41.368;2023-02-13T03:04:50;99334.94;;;-4.58;59.54
65384;BME280;51986;52.788;41.368;2023-02-13T03:07:18;99233.19;;;-4.78;60.16
65384;BME280;51986;52.788;41.368;2023-02-13T03:10:16;99227.88;;;-4.59;59.52
65384;BME280;51986;52.788;41.368;2023-02-13T03:12:53;99249.03;;;-4.62;59.59
65384;BME280;51986;52.788;41.368;2023-02-13T03:15:22;99273.03;;;-4.75;59.48
65384;BME280;51986;52.788;41.368;2023-02-13T03:17:50;99272.06;;;-4.66;59.47
65384;BME280;51986;52.788;41.368;2023-02-13T03:20:49;99271.28;;;-4.66;59.93
65384;BME280;51986;52.788;41.368;2023-02-13T03:25:56;99280.97;;;-4.99;59.96
65384;BME280;51986;52.788;41.368;2023-02-13T03:31:37;99264.00;;;-5.00;59.82
65384;BME280;51986;52.788;41.368;2023-02-13T03:34:16;99274.03;;;-4.99;59.27
65384;BME280;51986;52.788;41.368;2023-02-13T03:36:51;99278.22;;;-5.44;60.35
65384;BME280;51986;52.788;41.368;2023-02-13T03:41:55;99284.97;;;-5.34;60.02
65384;BME280;51986;52.788;41.368;2023-02-13T03:44:30;99302.63;;;-5.28;60.00
65384;BME280;51986;52.788;41.368;2023-02-13T03:47:02;99316.34;;;-5.32;60.01
65384;BME280;51986;52.788;41.368;2023-02-13T03:49:35;99295.75;;;-5.46;60.37
65384;BME280;51986;52.788;41.368;2023-02-13T03:55:25;99289.38;;;-5.21;59.82
65384;BME280;51986;52.788;41.368;2023-02-13T03:57:59;99277.19;;;-5.29;59.94
65384;BME280;51986;52.788;41.368;2023-02-13T04:00:34;99286.69;;;-5.44;59.72
65384;BME280;51986;52.788;41.368;2023-02-13T04:06:00;99293.25;;;-5.10;59.09
65384;BME280;51986;52.788;41.368;2023-02-13T04:08:30;99304.59;;;-5.39;59.01
65384;BME280;51986;52.788;41.368;2023-02-13T04:11:14;99297.28;;;-5.31;59.57
65384;BME280;51986;52.788;41.368;2023-02-13T04:13:57;99271.00;;;-5.28;59.18
65384;BME280;51986;52.788;41.368;2023-02-13T04:16:32;99294.50;;;-5.21;59.04
65384;BME280;51986;52.788;41.368;2023-02-13T04:19:00;99301.06;;;-5.29;59.56
65384;BME280;51986;52.788;41.368;2023-02-13T04:21:34;99302.69;;;-5.19;58.65
65384;BME280;51986;52.788;41.368;2023-02-13T04:24:02;99299.00;;;-5.13;58.80
65384;BME280;51986;52.788;41.368;2023-02-13T04:26:41;99290.59;;;-5.05;58.11
65384;BME280;51986;52.788;41.368;2023-02-13T04:29:08;99293.94;;;-5.04;58.55
65384;BME280;51986;52.788;41.368;2023-02-13T04:31:35;99285.38;;;-5.14;58.67
65384;BME280;51986;52.788;41.368;2023-02-13T04:34:02;99313.19;;;-5.02;57.80
65384;BME280;51986;52.788;41.368;2023-02-13T04:36:29;99305.25;;;-4.92;57.87
65384;BME280;51986;52.788;41.368;2023-02-13T04:38:57;99290.97;;;-4.98;57.55
65384;BME280;51986;52.788;41.368;2023-02-13T04:41:23;99296.31;;;-4.80;58.19
65384;BME280;51986;52.788;41.368;2023-02-13T04:43:50;99305.25;;;-4.78;57.43
65384;BME280;51986;52.788;41.368;2023-02-13T04:46:18;99288.88;;;-4.96;58.33
65384;BME280;51986;52.788;41.368;2023-02-13T04:48:45;99287.97;;;-4.64;56.76
65384;BME280;51986;52.788;41.368;2023-02-13T04:51:12;99296.34;;;-4.72;57.37
65384;BME280;51986;52.788;41.368;2023-02-13T04:53:39;99300.41;;;-4.57;57.36
65384;BME280;51986;52.788;41.368;2023-02-13T04:56:06;99295.94;;;-4.51;57.24
65384;BME280;51986;52.788;41.368;2023-02-13T04:58:33;99294.56;;;-4.13;56.33
65384;BME280;51986;52.788;41.368;2023-02-13T05:01:01;99285.69;;;-4.43;55.79
65384;BME280;51986;52.788;41.368;2023-02-13T05:03:28;99301.75;;;-4.46;55.62
65384;BME280;51986;52.788;41.368;2023-02-13T05:05:55;99298.59;;;-4.20;55.68
65384;BME280;51986;52.788;41.368;2023-02-13T05:08:22;99301.84;;;-4.51;55.29
65384;BME280;51986;52.788;41.368;2023-02-13T05:10:49;99293.56;;;-4.25;55.39
65384;BME280;51986;52.788;41.368;2023-02-13T05:13:16;99311.09;;;-4.05;55.40
65384;BME280;51986;52.788;41.368;2023-02-13T05:15:42;99323.34;;;-3.88;54.34
65384;BME280;51986;52.788;41.368;2023-02-13T05:18:09;99318.78;;;-3.91;54.43
65384;BME280;51986;52.788;41.368;2023-02-13T05:20:36;99316.50;;;-3.70;54.51
65384;BME280;51986;52.788;41.368;2023-02-13T05:23:03;99307.22;;;-3.71;53.49
65384;BME280;51986;52.788;41.368;2023-02-13T05:25:33;99315.31;;;-3.64;53.69
65384;BME280;51986;52.788;41.368;2023-02-13T05:28:00;99299.09;;;-4.10;53.83
65384;BME280;51986;52.788;41.368;2023-02-13T05:30:27;99316.13;;;-4.00;53.55
65384;BME280;51986;52.788;41.368;2023-02-13T05:32:54;99318.59;;;-3.72;52.99
65384;BME280;51986;52.788;41.368;2023-02-13T05:35:22;99299.91;;;-3.78;53.29
65384;BME280;51986;52.788;41.368;2023-02-13T05:37:49;99353.50;;;-4.11;52.98
65384;BME280;51986;52.788;41.368;2023-02-13T05:40:16;99323.88;;;-4.00;53.41
65384;BME280;51986;52.788;41.368;2023-02-13T05:42:43;99329.41;;;-3.62;53.08
65384;BME280;51986;52.788;41.368;2023-02-13T05:45:10;99301.94;;;-3.97;52.49
65384;BME280;51986;52.788;41.368;2023-02-13T05:47:38;99334.47;;;-4.01;52.22
65384;BME280;51986;52.788;41.368;2023-02-13T05:50:06;99308.97;;;-3.80;52.62
65384;BME280;51986;52.788;41.368;2023-02-13T05:52:33;99307.94;;;-3.79;51.61
65384;BME280;51986;52.788;41.368;2023-02-13T05:55:00;99324.16;;;-4.24;52.21
65384;BME280;51986;52.788;41.368;2023-02-13T05:57:27;99338.06;;;-4.11;52.29
65384;BME280;51986;52.788;41.368;2023-02-13T05:59:54;99329.69;;;-4.17;51.42
65384;BME280;51986;52.788;41.368;2023-02-13T06:02:21;99327.06;;;-4.03;52.41
65384;BME280;51986;52.788;41.368;2023-02-13T06:04:48;99352.94;;;-4.08;52.03
65384;BME280;51986;52.788;41.368;2023-02-13T06:07:15;99337.94;;;-4.06;51.43
65384;BME280;51986;52.788;41.368;2023-02-13T06:09:42;99330.13;;;-4.37;50.67
65384;BME280;51986;52.788;41.368;2023-02-13T06:12:09;99332.00;;;-4.29;50.64
65384;BME280;51986;52.788;41.368;2023-02-13T06:14:36;99349.38;;;-4.71;50.26
65384;BME280;51986;52.788;41.368;2023-02-13T06:17:03;99319.75;;;-4.96;50.00
65384;BME280;51986;52.788;41.368;2023-02-13T06:19:30;99320.03;;;-4.97;51.08
65384;BME280;51986;52.788;41.368;2023-02-13T06:21:57;99336.69;;;-5.36;50.61
65384;BME280;51986;52.788;41.368;2023-02-13T06:24:24;99332.56;;;-4.54;49.64
65384;BME280;51986;52.788;41.368;2023-02-13T06:26:51;99334.66;;;-4.56;49.19
65384;BME280;51986;52.788;41.368;2023-02-13T06:29:17;99355.59;;;-4.36;48.86
65384;BME280;51986;52.788;41.368;2023-02-13T06:31:44;99341.69;;;-4.12;47.76
65384;BME280;51986;52.788;41.368;2023-02-13T06:34:11;99349.81;;;-3.74;46.78
65384;BME280;51986;52.788;41.368;2023-02-13T06:36:39;99331.78;;;-2.94;45.66
65384;BME280;51986;52.788;41.368;2023-02-13T06:39:06;99336.38;;;-3.31;45.36
65384;BME280;51986;52.788;41.368;2023-02-13T06:41:32;99344.94;;;-3.13;45.66
65384;BME280;51986;52.788;41.368;2023-02-13T06:43:59;99343.84;;;-2.72;44.73
65384;BME280;51986;52.788;41.368;2023-02-13T06:46:26;99340.06;;;-2.23;43.71
65384;BME280;51986;52.788;41.368;2023-02-13T06:48:53;99346.88;;;-1.84;42.51
65384;BME280;51986;52.788;41.368;2023-02-13T06:51:20;99333.31;;;-1.63;42.43
65384;BME280;51986;52.788;41.368;2023-02-13T06:53:47;99347.28;;;-1.17;40.87
65384;BME280;51986;52.788;41.368;2023-02-13T06:56:14;99330.78;;;-1.34;40.99
65384;BME280;51986;52.788;41.368;2023-02-13T06:58:41;99337.31;;;-0.68;40.23
65384;BME280;51986;52.788;41.368;2023-02-13T07:01:08;99366.25;;;-0.25;39.17
65384;BME280;51986;52.788;41.368;2023-02-13T07:03:35;99354.09;;;0.09;37.88
65384;BME280;51986;52.788;41.368;2023-02-13T07:06:03;99330.75;;;0.21;37.85
65384;BME280;51986;52.788;41.368;2023-02-13T07:08:30;99339.66;;;0.45;36.69
65384;BME280;51986;52.788;41.368;2023-02-13T07:10:57;99330.63;;;0.63;37.55
65384;BME280;51986;52.788;41.368;2023-02-13T07:13:24;99331.50;;;0.67;37.06
65384;BME280;51986;52.788;41.368;2023-02-13T07:15:51;99330.63;;;0.06;38.21
65384;BME280;51986;52.788;41.368;2023-02-13T07:18:18;99320.63;;;-0.38;38.51
65384;BME280;51986;52.788;41.368;2023-02-13T07:20:45;99302.13;;;-0.99;39.60
65384;BME280;51986;52.788;41.368;2023-02-13T07:23:12;99353.75;;;-1.32;40.05
65384;BME280;51986;52.788;41.368;2023-02-13T07:25:39;99353.66;;;-1.06;40.95
65384;BME280;51986;52.788;41.368;2023-02-13T07:28:06;99322.31;;;-1.13;40.10
65384;BME280;51986;52.788;41.368;2023-02-13T07:30:33;99331.91;;;-1.14;39.92
65384;BME280;51986;52.788;41.368;2023-02-13T07:33:01;99328.03;;;-0.99;39.71
65384;BME280;51986;52.788;41.368;2023-02-13T07:35:29;99333.84;;;-1.02;40.26
65384;BME280;51986;52.788;41.368;2023-02-13T07:37:56;99338.38;;;-1.29;40.66
65384;BME280;51986;52.788;41.368;2023-02-13T07:40:23;99332.19;;;-1.45;40.17
65384;BME280;51986;52.788;41.368;2023-02-13T07:42:50;99341.75;;;-1.45;40.26
65384;BME280;51986;52.788;41.368;2023-02-13T07:45:19;99337.59;;;-0.91;39.29
65384;BME280;51986;52.788;41.368;2023-02-13T07:47:47;99328.91;;;-0.95;39.42
65384;BME280;51986;52.788;41.368;2023-02-13T07:50:14;99320.97;;;-0.69;38.69
65384;BME280;51986;52.788;41.368;2023-02-13T07:52:41;99340.41;;;-0.84;39.21
65384;BME280;51986;52.788;41.368;2023-02-13T07:55:12;99330.72;;;-0.24;38.29
65384;BME280;51986;52.788;41.368;2023-02-13T07:57:39;99338.25;;;-0.31;39.01
65384;BME280;51986;52.788;41.368;2023-02-13T08:00:07;99349.88;;;-0.16;38.30
65384;BME280;51986;52.788;41.368;2023-02-13T08:02:37;99318.84;;;-0.46;38.28
65384;BME280;51986;52.788;41.368;2023-02-13T08:05:04;99306.34;;;-0.44;38.69
65384;BME280;51986;52.788;41.368;2023-02-13T08:07:31;99311.38;;;-0.27;38.43
65384;BME280;51986;52.788;41.368;2023-02-13T08:10:00;99306.16;;;0.64;36.61
65384;BME280;51986;52.788;41.368;2023-02-13T08:12:27;99310.06;;;0.83;35.47
65384;BME280;51986;52.788;41.368;2023-02-13T08:14:54;99304.97;;;0.98;35.38
65384;BME280;51986;52.788;41.368;2023-02-13T08:17:21;99298.31;;;1.38;34.58
65384;BME280;51986;52.788;41.368;2023-02-13T08:19:48;99306.69;;;0.70;35.61
65384;BME280;51986;52.788;41.368;2023-02-13T08:22:15;99321.84;;;0.68;35.69
65384;BME280;51986;52.788;41.368;2023-02-13T08:24:42;99323.69;;;0.43;36.55
65384;BME280;51986;52.788;41.368;2023-02-13T08:27:13;99323.44;;;0.23;35.57
65384;BME280;51986;52.788;41.368;2023-02-13T08:29:40;99316.09;;;0.38;36.40
65384;BME280;51986;52.788;41.368;2023-02-13T08:32:07;99334.28;;;-0.29;36.97
65384;BME280;51986;52.788;41.368;2023-02-13T08:34:35;99310.41;;;-0.22;36.50
65384;BME280;51986;52.788;41.368;2023-02-13T08:37:02;99311.22;;;-0.63;38.08
65384;BME280;51986;52.788;41.368;2023-02-13T08:39:29;99312.41;;;-0.82;38.50
65384;BME280;51986;52.788;41.368;2023-02-13T08:41:56;99328.81;;;-0.36;37.05
65384;BME280;51986;52.788;41.368;2023-02-13T08:44:23;99303.91;;;-0.91;38.54
65384;BME280;51986;52.788;41.368;2023-02-13T08:46:50;99310.19;;;-0.92;37.87
65384;BME280;51986;52.788;41.368;2023-02-13T08:49:17;99292.09;;;-1.30;38.51
65384;BME280;51986;52.788;41.368;2023-02-13T08:51:44;99308.72;;;-0.81;38.25
65384;BME280;51986;52.788;41.368;2023-02-13T08:54:11;99299.06;;;-0.92;38.28
65384;BME280;51986;52.788;41.368;2023-02-13T08:56:40;99306.16;;;-1.10;38.56
65384;BME280;51986;52.788;41.368;2023-02-13T08:59:07;99277.75;;;-1.28;39.09
65384;BME280;51986;52.788;41.368;2023-02-13T09:01:34;99315.66;;;-1.23;39.10
65384;BME280;51986;52.788;41.368;2023-02-13T09:04:02;99290.56;;;-1.31;39.32
65384;BME280;51986;52.788;41.368;2023-02-13T09:06:28;99295.13;;;-0.99;39.17
65384;BME280;51986;52.788;41.368;2023-02-13T09:08:55;99301.63;;;-1.22;39.26
65384;BME280;51986;52.788;41.368;2023-02-13T09:11:22;99277.88;;;-0.74;38.40
65384;BME280;51986;52.788;41.368;2023-02-13T09:13:53;99289.28;;;-0.66;39.16
65384;BME280;51986;52.788;41.368;2023-02-13T09:16:21;99270.31;;;-0.58;38.89
65384;BME280;51986;52.788;41.368;2023-02-13T09:18:50;99285.16;;;-0.25;38.17
65384;BME280;51986;52.788;41.368;2023-02-13T09:21:19;99284.25;;;0.04;37.96
65384;BME280;51986;52.788;41.368;2023-02-13T09:23:46;99272.47;;;-0.39;38.58
65384;BME280;51986;52.788;41.368;2023-02-13T09:26:14;99279.16;;;-0.05;38.38
65384;BME280;51986;52.788;41.368;2023-02-13T09:28:42;99272.84;;;-0.16;38.14
65384;BME280;51986;52.788;41.368;2023-02-13T09:31:12;99258.66;;;0.27;37.97
65384;BME280;51986;52.788;41.368;2023-02-13T09:33:39;99258.63;;;-0.64;39.04
65384;BME280;51986;52.788;41.368;2023-02-13T09:36:10;99275.66;;;-0.42;38.89
65384;BME280;51986;52.788;41.368;2023-02-13T09:38:37;99265.63;;;-0.10;38.55
65384;BME280;51986;52.788;41.368;2023-02-13T09:41:08;99269.53;;;-0.04;38.36
65384;BME280;51986;52.788;41.368;2023-02-13T09:44:00;99266.13;;;0.28;38.01
65384;BME280;51986;52.788;41.368;2023-02-13T09:46:32;99256.41;;;0.13;37.30
65384;BME280;51986;52.788;41.368;2023-02-13T09:49:14;99234.13;;;0.37;37.81
65384;BME280;51986;52.788;41.368;2023-02-13T09:51:43;99275.19;;;0.10;38.63
65384;BME280;51986;52.788;41.368;2023-02-13T09:54:14;99263.44;;;0.49;37.85
65384;BME280;51986;52.788;41.368;2023-02-13T09:56:55;99283.13;;;-0.07;37.94
65384;BME280;51986;52.788;41.368;2023-02-13T10:00:19;99271.34;;;0.28;38.39
65384;BME280;51986;52.788;41.368;2023-02-13T10:03:06;99256.56;;;-0.04;38.25
65384;BME280;51986;52.788;41.368;2023-02-13T10:05:38;99238.63;;;0.03;38.10
65384;BME280;51986;52.788;41.368;2023-02-13T10:13:39;99262.56;;;-0.25;39.06
65384;BME280;51986;52.788;41.368;2023-02-13T10:16:13;99245.25;;;0.25;38.47
65384;BME280;51986;52.788;41.368;2023-02-13T10:21:25;99238.47;;;0.57;38.30
65384;BME280;51986;52.788;41.368;2023-02-13T10:24:11;99223.44;;;0.50;38.28
65384;BME280;51986;52.788;41.368;2023-02-13T10:26:42;99207.00;;;0.46;38.21
65384;BME280;51986;52.788;41.368;2023-02-13T10:29:32;99219.34;;;1.02;37.78
65384;BME280;51986;52.788;41.368;2023-02-13T10:32:06;99214.31;;;1.21;37.15
65384;BME280;51986;52.788;41.368;2023-02-13T10:34:41;99187.78;;;0.88;37.56
65384;BME280;51986;52.788;41.368;2023-02-13T10:37:17;99222.59;;;0.99;37.28
65384;BME280;51986;52.788;41.368;2023-02-13T10:39:48;99212.88;;;0.96;37.16
65384;BME280;51986;52.788;41.368;2023-02-13T10:42:46;99211.31;;;1.07;37.58
65384;BME280;51986;52.788;41.368;2023-02-13T11:04:35;99184.84;;;-0.00;39.13
65384;BME280;51986;52.788;41.368;2023-02-13T11:07:04;99182.53;;;-0.02;39.34
65384;BME280;51986;52.788;41.368;2023-02-13T11:09:40;99180.06;;;-0.10;39.45
65384;BME280;51986;52.788;41.368;2023-02-13T11:12:27;99164.72;;;-0.03;39.73
65384;BME280;51986;52.788;41.368;2023-02-13T11:15:06;99154.34;;;-0.15;40.23
65384;BME280;51986;52.788;41.368;2023-02-13T11:17:39;99132.00;;;-0.08;39.33
65384;BME280;51986;52.788;41.368;2023-02-13T11:20:25;99144.19;;;-0.20;40.17
65384;BME280;51986;52.788;41.368;2023-02-13T11:22:56;99162.53;;;-0.26;40.29
65384;BME280;51986;52.788;41.368;2023-02-13T11:25:52;99147.63;;;-0.16;40.33
65384;BME280;51986;52.788;41.368;2023-02-13T11:28:22;99137.72;;;-0.02;39.69
65384;BME280;51986;52.788;41.368;2023-02-13T11:30:49;99150.56;;;-0.18;40.29
65384;BME280;51986;52.788;41.368;2023-02-13T11:35:44;99132.97;;;-0.00;39.92
65384;BME280;51986;52.788;41.368;2023-02-13T11:40:44;99125.06;;;-0.16;40.07
65384;BME280;51986;52.788;41.368;2023-02-13T11:43:33;99128.22;;;-0.10;40.58
65384;BME280;51986;52.788;41.368;2023-02-13T11:46:20;99137.06;;;0.01;40.16
65384;BME280;51986;52.788;41.368;2023-02-13T11:49:03;99138.13;;;-0.12;41.00
65384;BME280;51986;52.788;41.368;2023-02-13T11:51:57;99127.56;;;-0.19;41.43
65384;BME280;51986;52.788;41.368;2023-02-13T11:57:01;99133.44;;;-0.56;41.23
65384;BME280;51986;52.788;41.368;2023-02-13T11:59:39;99154.16;;;-0.56;41.49
65384;BME280;51986;52.788;41.368;2023-02-13T12:02:17;99140.03;;;-0.46;41.83
65384;BME280;51986;52.788;41.368;2023-02-13T12:04:47;99126.06;;;-0.66;41.77
65384;BME280;51986;52.788;41.368;2023-02-13T12:07:19;99129.00;;;-0.67;41.71
65384;BME280;51986;52.788;41.368;2023-02-13T12:09:52;99116.03;;;-0.67;41.94
65384;BME280;51986;52.788;41.368;2023-02-13T12:12:39;99135.69;;;-0.66;42.00
65384;BME280;51986;52.788;41.368;2023-02-13T12:15:24;99137.06;;;-1.23;43.19
65384;BME280;51986;52.788;41.368;2023-02-13T12:18:14;99124.69;;;-1.17;42.54
65384;BME280;51986;52.788;41.368;2023-02-13T12:21:08;99131.38;;;-1.37;43.50
65384;BME280;51986;52.788;41.368;2023-02-13T12:26:41;99119.44;;;-1.71;44.47
65384;BME280;51986;52.788;41.368;2023-02-13T12:38:13;99101.34;;;-2.01;45.84
65384;BME280;51986;52.788;41.368;2023-02-13T12:46:34;99108.84;;;-2.55;47.26
65384;BME280;51986;52.788;41.368;2023-02-13T13:00:56;99075.16;;;-2.76;47.83
65384;BME280;51986;52.788;41.368;2023-02-13T13:03:59;99073.94;;;-2.70;48.04
65384;BME280;51986;52.788;41.368;2023-02-13T13:07:01;99078.63;;;-2.63;48.34
65384;BME280;51986;52.788;41.368;2023-02-13T13:10:15;99114.97;;;-2.86;49.11
65384;BME280;51986;52.788;41.368;2023-02-13T13:26:29;99077.22;;;-3.16;50.03
65384;BME280;51986;52.788;41.368;2023-02-13T13:29:04;99056.59;;;-3.51;50.83
65384;BME280;51986;52.788;41.368;2023-02-13T13:31:34;99050.81;;;-3.39;51.25
65384;BME280;51986;52.788;41.368;2023-02-13T13:34:06;99056.44;;;-3.54;51.17
65384;BME280;51986;52.788;41.368;2023-02-13T13:39:56;99047.78;;;-3.24;50.38
65384;BME280;51986;52.788;41.368;2023-02-13T13:42:38;99066.47;;;-3.27;51.13
65384;BME280;51986;52.788;41.368;2023-02-13T13:45:44;99052.66;;;-3.40;51.70
65384;BME280;51986;52.788;41.368;2023-02-13T13:51:06;99048.38;;;-3.88;52.73
65384;BME280;51986;52.788;41.368;2023-02-13T13:53:33;99050.63;;;-3.86;53.41
65384;BME280;51986;52.788;41.368;2023-02-13T13:56:02;99056.84;;;-3.96;53.71
65384;BME280;51986;52.788;41.368;2023-02-13T13:58:39;99042.63;;;-3.85;53.18
65384;BME280;51986;52.788;41.368;2023-02-13T14:03:48;99052.88;;;-4.11;53.74
65384;BME280;51986;52.788;41.368;2023-02-13T14:06:22;99063.78;;;-4.05;53.77
65384;BME280;51986;52.788;41.368;2023-02-13T14:08:57;99049.38;;;-4.15;53.71
65384;BME280;51986;52.788;41.368;2023-02-13T14:13:55;99048.59;;;-4.15;54.64
65384;BME280;51986;52.788;41.368;2023-02-13T14:16:41;99045.13;;;-4.11;54.28
65384;BME280;51986;52.788;41.368;2023-02-13T14:19:31;99043.94;;;-4.13;55.50
65384;BME280;51986;52.788;41.368;2023-02-13T14:24:53;99023.56;;;-4.32;54.76
65384;BME280;51986;52.788;41.368;2023-02-13T14:27:29;99028.00;;;-4.15;54.84
65384;BME280;51986;52.788;41.368;2023-02-13T14:29:59;99032.78;;;-4.40;55.75
65384;BME280;51986;52.788;41.368;2023-02-13T14:32:30;99041.34;;;-4.13;55.30
65384;BME280;51986;52.788;41.368;2023-02-13T14:35:02;99026.00;;;-4.27;54.79
65384;BME280;51986;52.788;41.368;2023-02-13T14:37:36;99026.78;;;-4.26;55.40
65384;BME280;51986;52.788;41.368;2023-02-13T14:42:47;99023.47;;;-4.18;54.80
65384;BME280;51986;52.788;41.368;2023-02-13T14:45:23;99012.25;;;-4.22;55.58
65384;BME280;51986;52.788;41.368;2023-02-13T14:48:06;99002.47;;;-4.51;56.38
65384;BME280;51986;52.788;41.368;2023-02-13T14:50:49;99002.47;;;-4.43;56.29
65384;BME280;51986;52.788;41.368;2023-02-13T14:53:23;99027.63;;;-4.40;56.00
65384;BME280;51986;52.788;41.368;2023-02-13T14:56:12;99010.28;;;-4.17;55.80
65384;BME280;51986;52.788;41.368;2023-02-13T14:59:13;99011.16;;;-4.30;55.81
65384;BME280;51986;52.788;41.368;2023-02-13T15:01:50;99020.25;;;-4.32;56.85
65384;BME280;51986;52.788;41.368;2023-02-13T15:04:29;99009.94;;;-4.24;55.82
65384;BME280;51986;52.788;41.368;2023-02-13T15:06:59;98979.59;;;-4.44;56.68
65384;BME280;51986;52.788;41.368;2023-02-13T15:11:54;99005.72;;;-4.20;56.77
65384;BME280;51986;52.788;41.368;2023-02-13T15:14:30;98977.28;;;-4.63;57.40
65384;BME280;51986;52.788;41.368;2023-02-13T15:17:14;98986.84;;;-4.55;57.93
65384;BME280;51986;52.788;41.368;2023-02-13T15:19:45;98974.28;;;-4.48;57.10
65384;BME280;51986;52.788;41.368;2023-02-13T15:22:44;98942.00;;;-4.63;58.01
65384;BME280;51986;52.788;41.368;2023-02-13T15:25:08;98981.84;;;-4.60;57.93
65384;BME280;51986;52.788;41.368;2023-02-13T15:27:41;98987.47;;;-4.49;58.09
65384;BME280;51986;52.788;41.368;2023-02-13T15:30:24;98972.06;;;-4.41;58.03
65384;BME280;51986;52.788;41.368;2023-02-13T15:33:01;98963.78;;;-4.69;58.38
65384;BME280;51986;52.788;41.368;2023-02-13T15:35:34;98980.38;;;-4.44;58.43